Time;durP1;ratioP1;P1;durP2;ratioP2;P2;SDS_P1;SDS_P2;PMS_P1;PMS_P2;Temp;Humidity;BMP_temperature;BMP_pressure;BME280_temperature;BME280_humidity;BME280_pressure;Samples;Min_cycle;Max_cycle;Signal;HPM_P1;HPM_P2
2021/03/30 00:00:58;;;;;;;22.30;13.50;;;;;;;11.13;69.67;101353.95;147743;1147;104544;-76
2021/03/30 00:04:01;;;;;;;17.83;11.37;;;;;;;11.15;69.46;101358.17;147793;1148;105056;-73
2021/03/30 00:07:05;;;;;;;27.07;15.47;;;;;;;11.16;69.04;101348.33;147805;1147;104544;-73
2021/03/30 00:10:14;;;;;;;21.90;14.33;;;;;;;11.19;69.89;101350.75;147697;1147;104556;-74
2021/03/30 00:13:17;;;;;;;24.50;15.72;;;;;;;11.19;69.46;101353.42;147840;1147;104470;-74
2021/03/30 00:16:21;;;;;;;25.68;16.00;;;;;;;11.18;69.33;101346.37;147696;1147;104500;-77
2021/03/30 00:19:25;;;;;;;30.32;18.45;;;;;;;11.15;69.46;101341.30;147745;1147;104553;-77
2021/03/30 00:22:28;;;;;;;24.07;14.47;;;;;;;11.11;69.35;101343.38;147703;1148;104476;-79
2021/03/30 00:25:31;;;;;;;20.70;12.73;;;;;;;11.11;69.57;101332.70;147742;1147;104710;-77
2021/03/30 00:28:34;;;;;;;19.40;12.07;;;;;;;11.12;69.55;101329.03;147741;1146;104492;-77
2021/03/30 00:31:37;;;;;;;19.07;13.73;;;;;;;11.14;69.68;101324.44;147598;1146;104543;-77
2021/03/30 00:34:40;;;;;;;24.43;15.25;;;;;;;11.13;69.90;101324.56;147905;1146;104466;-76
2021/03/30 00:37:44;;;;;;;21.30;13.50;;;;;;;11.13;68.92;101327.23;147863;1146;104805;-77
2021/03/30 00:40:47;;;;;;;20.53;13.40;;;;;;;11.12;69.61;101328.20;147788;1147;104665;-78
2021/03/30 00:43:50;;;;;;;22.93;13.93;;;;;;;11.10;69.97;101324.81;147700;1147;104601;-77
2021/03/30 00:46:54;;;;;;;20.43;13.03;;;;;;;11.11;70.14;101331.86;147353;1147;104432;-75
2021/03/30 00:49:58;;;;;;;18.65;12.35;;;;;;;11.13;69.35;101322.73;147736;1146;104472;-75
2021/03/30 00:53:02;;;;;;;20.77;13.50;;;;;;;11.14;70.14;101320.89;147820;1147;104454;-73
2021/03/30 00:56:41;;;;;;;20.00;12.88;;;;;;;11.18;69.55;101335.69;147799;1147;104594;-75
2021/03/30 00:59:44;;;;;;;23.25;14.53;;;;;;;11.17;69.34;101334.00;147811;1147;104455;-76
2021/03/30 01:02:47;;;;;;;19.23;13.53;;;;;;;11.16;70.12;101340.31;147561;1147;104473;-74
2021/03/30 01:05:51;;;;;;;20.50;12.18;;;;;;;11.12;70.27;101339.72;147502;1147;104472;-74
2021/03/30 01:09:19;;;;;;;17.17;11.77;;;;;;;11.14;69.96;101337.80;147492;1147;104514;-75
2021/03/30 01:12:34;;;;;;;26.40;16.53;;;;;;;11.18;70.15;101341.89;147760;1146;105104;-77
2021/03/30 01:15:47;;;;;;;25.43;16.23;;;;;;;11.20;69.43;101334.59;147864;1147;104470;-74
2021/03/30 01:18:58;;;;;;;22.93;15.00;;;;;;;11.23;69.66;101325.46;147862;1147;104447;-75
2021/03/30 01:22:34;;;;;;;25.25;16.10;;;;;;;11.22;69.89;101330.93;147783;1147;104467;-75
2021/03/30 01:25:39;;;;;;;22.45;15.03;;;;;;;11.17;69.76;101325.98;147844;1148;104541;-75
2021/03/30 01:29:02;;;;;;;19.93;13.20;;;;;;;11.16;69.81;101329.63;147849;1147;104522;-75
2021/03/30 01:32:09;;;;;;;21.73;12.78;;;;;;;11.16;70.02;101327.83;147824;1147;104615;-75
2021/03/30 01:35:17;;;;;;;18.23;12.82;;;;;;;11.19;69.67;101334.72;147540;1148;104490;-75
2021/03/30 01:38:21;;;;;;;23.27;15.03;;;;;;;11.22;69.99;101333.60;147239;1147;104466;-76
2021/03/30 01:41:25;;;;;;;20.77;13.68;;;;;;;11.23;70.32;101328.13;147345;1147;104972;-74
2021/03/30 01:44:29;;;;;;;21.87;14.37;;;;;;;11.23;70.22;101330.80;147254;1147;104620;-74
2021/03/30 01:47:35;;;;;;;23.05;15.20;;;;;;;11.21;70.32;101327.42;147261;1146;104904;-73
2021/03/30 01:50:40;;;;;;;21.42;12.70;;;;;;;11.18;70.23;101327.67;147599;1147;104549;-74
2021/03/30 01:53:43;;;;;;;17.55;12.05;;;;;;;11.20;70.32;101325.71;147751;1147;104600;-77
2021/03/30 01:56:49;;;;;;;22.02;13.40;;;;;;;11.22;69.90;101333.60;147857;1148;104441;-76
2021/03/30 01:59:54;;;;;;;24.45;15.48;;;;;;;11.20;69.64;101317.70;147557;1147;104479;-78
2021/03/30 02:03:00;;;;;;;26.65;15.72;;;;;;;11.23;70.82;101325.46;147731;1147;104532;-77
2021/03/30 02:06:07;;;;;;;25.27;16.15;;;;;;;11.23;70.43;101328.13;147359;1147;104480;-77
2021/03/30 02:09:17;;;;;;;23.98;15.48;;;;;;;11.22;69.89;101329.13;147621;1147;104448;-79
2021/03/30 02:12:23;;;;;;;25.25;15.90;;;;;;;11.20;69.95;101325.71;147762;1147;104543;-75
2021/03/30 02:15:27;;;;;;;20.55;13.13;;;;;;;11.17;70.36;101328.66;147690;1147;104733;-73
2021/03/30 02:18:41;;;;;;;30.93;17.60;;;;;;;11.17;70.36;101328.66;147788;1148;104460;-77
2021/03/30 02:21:48;;;;;;;22.13;15.00;;;;;;;11.18;70.89;101333.01;147784;1147;104546;-74
2021/03/30 02:24:53;;;;;;;21.47;14.53;;;;;;;11.20;70.03;101334.59;147734;1147;104537;-74
2021/03/30 02:28:02;;;;;;;22.95;15.55;;;;;;;11.21;70.16;101330.09;147558;1147;104448;-73
2021/03/30 02:31:08;;;;;;;27.23;17.83;;;;;;;11.20;70.00;101323.91;147720;1146;104968;-73
2021/03/30 02:34:14;;;;;;;29.23;18.67;;;;;;;11.21;70.24;101327.42;147765;1147;104600;-74
2021/03/30 02:37:20;;;;;;;61.23;30.35;;;;;;;11.19;70.42;101334.72;147794;1147;104538;-76
2021/03/30 02:40:25;;;;;;;28.50;17.42;;;;;;;11.20;70.58;101323.04;147741;1147;104472;-74
2021/03/30 02:43:29;;;;;;;29.97;18.80;;;;;;;11.23;69.98;101336.15;147789;1146;104466;-74
2021/03/30 02:46:36;;;;;;;52.83;28.97;;;;;;;11.26;70.76;101329.69;147794;1148;104556;-78
2021/03/30 02:49:39;;;;;;;38.28;22.27;;;;;;;11.26;70.94;101327.89;147778;1148;104543;-78
2021/03/30 02:52:44;;;;;;;47.23;26.40;;;;;;;11.26;70.46;101333.23;147535;1147;104417;-84
2021/03/30 02:55:49;;;;;;;37.88;20.62;;;;;;;11.21;70.61;101327.42;147826;1147;104548;-82
2021/03/30 02:58:53;;;;;;;33.73;19.23;;;;;;;11.19;70.22;101326.70;147902;1147;104482;-83
2021/03/30 03:01:58;;;;;;;25.72;14.30;;;;;;;11.23;70.90;101324.63;147855;1147;104972;-82
2021/03/30 03:05:02;;;;;;;66.50;32.63;;;;;;;11.26;70.62;101327.89;147999;1147;104492;-77
2021/03/30 03:08:07;;;;;;;30.02;17.62;;;;;;;11.24;70.86;101332.52;147476;1147;104522;-77
2021/03/30 03:11:14;;;;;;;37.95;23.22;;;;;;;11.25;70.78;101330.68;147590;1147;104598;-79
2021/03/30 03:14:20;;;;;;;28.23;17.67;;;;;;;11.25;70.21;101325.34;147797;1147;104447;-85
2021/03/30 03:17:24;;;;;;;28.77;15.68;;;;;;;11.24;70.70;101331.64;147836;1146;104479;-81
2021/03/30 03:20:28;;;;;;;21.60;13.70;;;;;;;11.21;71.17;101327.42;148116;1147;104835;-79
2021/03/30 03:23:32;;;;;;;25.95;15.05;;;;;;;11.21;70.90;101322.08;147757;1147;104576;-79
2021/03/30 03:26:37;;;;;;;17.70;12.97;;;;;;;11.24;70.97;101313.81;147874;1147;104519;-78
2021/03/30 03:29:40;;;;;;;23.20;14.83;;;;;;;11.27;70.42;101312.69;147875;1148;104447;-79
2021/03/30 03:32:44;;;;;;;25.50;16.25;;;;;;;11.28;70.88;101307.22;147304;1146;104661;-79
2021/03/30 03:36:05;;;;;;;23.57;15.83;;;;;;;11.27;70.76;101318.88;147708;1147;104548;-79
2021/03/30 03:39:11;;;;;;;22.07;14.95;;;;;;;11.25;71.32;101309.31;147363;1147;104495;-82
2021/03/30 03:42:14;;;;;;;21.43;14.77;;;;;;;11.21;71.03;101314.06;147279;1147;104470;-81
2021/03/30 03:45:17;;;;;;;18.15;12.37;;;;;;;11.19;71.35;101314.19;147350;1147;104461;-81
2021/03/30 03:48:20;;;;;;;17.57;12.73;;;;;;;11.20;70.94;101312.35;147647;1147;104601;-81
2021/03/30 03:51:25;;;;;;;17.90;13.00;;;;;;;11.19;71.10;101313.34;147702;1147;104442;-82
2021/03/30 03:54:29;;;;;;;25.30;15.55;;;;;;;11.20;70.66;101309.68;147793;1148;104556;-81
2021/03/30 03:57:41;;;;;;;20.15;13.62;;;;;;;11.23;71.71;101313.94;147828;1147;104540;-82
2021/03/30 04:00:45;;;;;;;18.75;13.65;;;;;;;11.23;71.02;101322.79;147445;1147;104559;-80
2021/03/30 04:03:52;;;;;;;18.40;13.68;;;;;;;11.22;71.28;101322.91;147550;1148;104707;-80
2021/03/30 04:06:58;;;;;;;21.15;13.08;;;;;;;11.17;70.86;101331.33;147414;1147;104569;-81
2021/03/30 04:10:06;;;;;;;21.48;14.13;;;;;;;11.19;71.41;101330.22;147483;1147;104466;-81
2021/03/30 04:13:11;;;;;;;19.97;12.77;;;;;;;11.22;70.98;101329.13;147434;1147;104453;-80
2021/03/30 04:16:15;;;;;;;19.48;13.20;;;;;;;11.27;71.52;101331.39;147422;1147;104455;-78
2021/03/30 04:19:18;;;;;;;19.40;13.18;;;;;;;11.27;71.24;101332.23;147621;1146;104623;-77
2021/03/30 04:22:21;;;;;;;21.42;15.43;;;;;;;11.25;71.59;101336.02;147749;1147;104507;-77
2021/03/30 04:25:24;;;;;;;19.90;14.80;;;;;;;11.23;71.50;101346.00;147201;1147;104543;-78
2021/03/30 04:28:28;;;;;;;20.62;13.40;;;;;;;11.18;71.05;101346.37;147607;1147;105023;-78
2021/03/30 04:31:31;;;;;;;19.67;13.15;;;;;;;11.20;70.84;101355.09;147694;1147;104546;-81
2021/03/30 04:34:34;;;;;;;17.33;12.60;;;;;;;11.23;71.05;101349.51;147822;1147;104587;-79
2021/03/30 04:37:37;;;;;;;19.00;12.60;;;;;;;11.25;71.41;101350.22;147729;1147;104524;-81
2021/03/30 04:40:40;;;;;;;19.27;12.98;;;;;;;11.26;71.85;101356.41;147653;1146;104547;-79
2021/03/30 04:43:44;;;;;;;19.57;14.07;;;;;;;11.26;71.41;101357.27;147393;1147;104556;-81
2021/03/30 04:46:47;;;;;;;20.23;14.10;;;;;;;11.27;71.83;101353.61;147652;1146;104473;-80
2021/03/30 04:49:50;;;;;;;18.15;12.07;;;;;;;11.27;71.50;101355.44;147461;1147;104563;-81
2021/03/30 04:52:53;;;;;;;20.50;11.90;;;;;;;11.29;71.61;101346.30;147473;1147;104506;-80
2021/03/30 04:55:56;;;;;;;28.25;16.17;;;;;;;11.32;71.35;101348.73;147469;1146;104452;-76
2021/03/30 04:58:59;;;;;;;20.77;14.65;;;;;;;11.35;71.31;101350.28;147345;1147;104543;-82
2021/03/30 05:02:03;;;;;;;19.87;13.53;;;;;;;11.37;70.95;101343.84;147509;1147;104553;-83
2021/03/30 05:05:08;;;;;;;19.33;13.07;;;;;;;11.38;71.68;101348.20;148894;1147;104668;-83
2021/03/30 05:08:12;;;;;;;19.87;13.53;;;;;;;11.38;71.67;101348.20;147628;1148;104550;-84
2021/03/30 05:11:15;;;;;;;19.45;12.50;;;;;;;11.35;71.97;101351.12;147787;1147;104602;-85
2021/03/30 05:14:18;;;;;;;25.12;14.50;;;;;;;11.37;72.18;101349.19;147843;1147;104495;-83
2021/03/30 05:17:21;;;;;;;20.23;14.10;;;;;;;11.42;71.57;101350.62;147788;1147;104491;-80
2021/03/30 05:20:24;;;;;;;25.08;16.73;;;;;;;11.45;72.01;101351.20;147645;1147;104612;-76
2021/03/30 05:23:27;;;;;;;27.55;17.67;;;;;;;11.47;71.85;101357.27;147771;1147;104451;-80
2021/03/30 05:26:34;;;;;;;26.87;17.57;;;;;;;11.47;72.01;101369.76;147428;1147;104668;-80
2021/03/30 05:29:43;;;;;;;28.62;17.75;;;;;;;11.46;71.84;101384.12;147478;1146;104543;-81
2021/03/30 05:32:46;;;;;;;36.50;22.20;;;;;;;11.44;72.26;101380.73;147761;1147;104486;-82
2021/03/30 05:35:50;;;;;;;31.57;19.67;;;;;;;11.44;71.57;101378.06;147756;1147;104569;-78
2021/03/30 05:38:53;;;;;;;28.80;18.55;;;;;;;11.48;72.02;101387.50;147597;1147;104515;-83
2021/03/30 05:41:56;;;;;;;27.52;19.07;;;;;;;11.47;71.44;101381.32;147559;1147;104495;-87
2021/03/30 05:45:00;;;;;;;72.53;32.50;;;;;;;11.51;71.98;101381.88;147565;1147;104822;-83
2021/03/30 05:48:03;;;;;;;47.27;27.33;;;;;;;11.55;72.06;101377.98;147575;1148;104487;-82
2021/03/30 05:51:08;;;;;;;49.13;33.98;;;;;;;11.55;71.65;101391.35;147451;1147;104629;-85
2021/03/30 05:54:12;;;;;;;33.60;23.20;;;;;;;11.54;71.70;101386.97;147608;1148;104449;-84
2021/03/30 05:57:17;;;;;;;25.97;16.37;;;;;;;11.58;71.53;101388.40;147630;1146;104495;-83
2021/03/30 06:00:24;;;;;;;29.55;21.35;;;;;;;11.63;72.09;101391.53;147484;1147;104486;-80
2021/03/30 06:03:29;;;;;;;26.20;18.82;;;;;;;11.69;71.96;101385.66;147693;1147;104519;-85
2021/03/30 06:06:33;;;;;;;29.97;20.40;;;;;;;11.73;71.94;101387.08;147619;1147;104569;-85
2021/03/30 06:09:36;;;;;;;26.73;18.57;;;;;;;11.77;72.09;101388.50;147531;1146;104502;-83
2021/03/30 06:12:39;;;;;;;77.25;42.55;;;;;;;11.79;71.77;101386.54;147483;1148;104523;-83
2021/03/30 06:15:42;;;;;;;41.08;23.42;;;;;;;11.82;71.59;101384.58;148204;1146;104441;-82
2021/03/30 06:18:45;;;;;;;30.32;19.62;;;;;;;11.91;71.66;101394.51;147957;1147;104468;-82
2021/03/30 06:22:01;;;;;;;45.58;28.80;;;;;;;11.98;71.32;101391.16;147923;1147;104609;-81
2021/03/30 06:25:05;;;;;;;55.55;31.02;;;;;;;12.07;71.55;101392.20;148031;1147;104479;-83
2021/03/30 06:28:13;;;;;;;33.98;21.95;;;;;;;12.14;72.26;101385.34;147707;1147;104448;-80
2021/03/30 06:31:17;;;;;;;61.00;32.90;;;;;;;12.23;71.59;101388.17;147622;1146;104452;-82
2021/03/30 06:34:27;;;;;;;54.50;34.60;;;;;;;12.31;71.83;101385.66;147754;1147;104470;-79
2021/03/30 06:37:36;;;;;;;30.02;19.45;;;;;;;12.36;71.67;101394.13;147928;1147;104630;-84
2021/03/30 06:40:41;;;;;;;28.67;19.75;;;;;;;12.46;71.78;101394.16;147980;1147;104469;-83
2021/03/30 06:47:06;;;;;;;;;;;;;;;12.74;71.56;101388.00;148177;1148;104498;-81
2021/03/30 06:50:17;;;;;;;24.53;16.30;;;;;;;12.87;71.37;101393.06;147750;1147;104435;-81
2021/03/30 06:53:21;;;;;;;36.20;23.32;;;;;;;12.99;71.13;101385.77;147529;1147;104400;-81
2021/03/30 06:56:45;;;;;;;32.70;20.97;;;;;;;13.04;71.36;101390.69;147849;1147;104464;-82
2021/03/30 06:59:48;;;;;;;45.78;28.42;;;;;;;13.10;71.34;101398.15;147456;1148;104456;-83
2021/03/30 07:02:54;;;;;;;34.40;20.77;;;;;;;13.12;71.08;101390.81;147696;1147;104399;-81
2021/03/30 07:05:57;;;;;;;31.42;20.32;;;;;;;13.18;71.19;101384.88;147665;1148;104477;-82
2021/03/30 07:09:01;;;;;;;53.33;34.80;;;;;;;13.35;71.08;101397.59;147764;1147;104543;-82
2021/03/30 07:12:09;;;;;;;37.60;24.82;;;;;;;13.48;71.40;101391.94;147541;1147;104658;-81
2021/03/30 07:15:14;;;;;;;26.10;17.53;;;;;;;13.58;70.55;101401.80;147746;1147;104445;-80
2021/03/30 07:18:24;;;;;;;28.05;19.05;;;;;;;13.51;70.87;101393.47;147977;1146;104521;-80
2021/03/30 07:21:33;;;;;;;26.05;16.95;;;;;;;13.48;71.05;101393.78;147700;1147;104543;-83
2021/03/30 07:24:45;;;;;;;24.53;15.40;;;;;;;13.38;70.26;101401.84;147626;1147;104652;-80
2021/03/30 07:27:52;;;;;;;36.33;16.37;;;;;;;13.37;70.71;101399.30;147873;1146;104465;-82
2021/03/30 07:31:02;;;;;;;23.93;15.97;;;;;;;13.51;70.92;101398.83;147831;1147;104489;-86
2021/03/30 07:34:10;;;;;;;43.47;30.67;;;;;;;13.67;70.62;101400.94;147554;1148;104444;-82
2021/03/30 07:37:17;;;;;;;27.67;20.10;;;;;;;13.81;69.70;101403.14;147884;1148;104553;-84
2021/03/30 07:40:22;;;;;;;26.07;17.85;;;;;;;13.75;69.98;101409.93;147737;1147;104592;-82
2021/03/30 07:43:27;;;;;;;26.80;17.80;;;;;;;13.77;70.08;101392.86;147996;1146;104454;-87
2021/03/30 07:46:32;;;;;;;28.98;18.20;;;;;;;13.77;69.31;101400.91;147953;1147;104556;-88
2021/03/30 07:49:41;;;;;;;22.20;15.23;;;;;;;13.63;69.51;101411.11;147660;1148;104888;-85
2021/03/30 07:52:48;;;;;;;23.00;15.35;;;;;;;13.62;69.85;101412.08;147630;1146;104473;-79
2021/03/30 07:55:51;;;;;;;31.07;21.15;;;;;;;13.73;70.34;101417.28;147595;1147;104748;-82
2021/03/30 07:58:56;;;;;;;23.97;17.03;;;;;;;13.85;69.30;101420.63;147680;1147;105145;-83
2021/03/30 08:02:00;;;;;;;31.33;18.47;;;;;;;13.92;70.01;101426.28;147715;1146;104445;-85
2021/03/30 08:05:09;;;;;;;25.60;17.17;;;;;;;13.81;69.11;101418.40;147944;1147;104469;-83
2021/03/30 08:08:24;;;;;;;24.65;17.15;;;;;;;13.85;69.10;101431.36;147746;1147;104553;-77
2021/03/30 08:11:49;;;;;;;21.68;15.15;;;;;;;14.03;69.46;101428.78;147701;1147;104601;-82
2021/03/30 08:14:53;;;;;;;20.52;14.38;;;;;;;14.29;68.75;101433.47;147986;1147;104454;-80
2021/03/30 08:17:58;;;;;;;25.17;16.60;;;;;;;14.39;69.18;101431.58;147792;1147;104463;-81
2021/03/30 08:21:04;;;;;;;23.87;16.50;;;;;;;14.47;69.15;101437.06;147663;1146;104526;-84
2021/03/30 08:24:10;;;;;;;23.38;15.60;;;;;;;14.59;68.35;101439.55;147929;1147;104626;-80
2021/03/30 08:27:37;;;;;;;21.85;15.15;;;;;;;14.56;67.37;101447.90;147608;1147;104607;-81
2021/03/30 08:31:00;;;;;;;22.67;16.12;;;;;;;14.41;66.57;101453.75;147747;1147;104551;-80
2021/03/30 08:34:06;;;;;;;22.65;16.05;;;;;;;14.41;68.88;101445.70;148101;1147;104445;-83
2021/03/30 08:37:12;;;;;;;21.80;15.35;;;;;;;14.52;68.27;101445.50;147768;1147;104494;-83
2021/03/30 08:40:43;;;;;;;20.92;13.72;;;;;;;14.53;67.73;101452.58;147822;1147;104543;-86
2021/03/30 08:44:11;;;;;;;18.20;13.55;;;;;;;14.50;68.62;101447.49;148209;1147;104553;-84
2021/03/30 08:47:32;;;;;;;19.92;13.90;;;;;;;14.49;68.47;101459.25;148025;1147;104548;-82
2021/03/30 08:50:36;;;;;;;15.05;11.95;;;;;;;14.45;67.70;101454.30;147981;1147;104553;-83
2021/03/30 08:53:39;;;;;;;15.95;12.40;;;;;;;14.46;68.46;101456.84;147741;1148;104531;-84
2021/03/30 08:56:44;;;;;;;14.00;11.65;;;;;;;14.34;67.54;101464.25;148071;1147;104487;-84
2021/03/30 08:59:48;;;;;;;15.65;11.50;;;;;;;14.18;68.13;101458.66;147886;1147;104529;-84
2021/03/30 09:03:00;;;;;;;15.43;11.03;;;;;;;14.17;69.08;101451.61;147664;1148;104476;-82
2021/03/30 09:06:04;;;;;;;14.35;9.68;;;;;;;14.26;68.60;101457.92;148027;1147;104452;-83
2021/03/30 09:09:21;;;;;;;11.22;8.60;;;;;;;14.25;68.96;101464.30;147835;1147;104453;-83
2021/03/30 09:12:24;;;;;;;12.63;9.68;;;;;;;14.22;69.07;101469.95;147794;1147;104467;-83
2021/03/30 09:15:28;;;;;;;14.78;9.33;;;;;;;14.27;69.22;101456.94;148011;1147;104711;-80
2021/03/30 09:18:34;;;;;;;11.83;8.28;;;;;;;14.39;68.38;101471.85;147763;1147;104511;-83
2021/03/30 09:21:37;;;;;;;10.43;7.12;;;;;;;14.35;68.18;101467.77;147997;1148;104469;-82
2021/03/30 09:28:16;;;;;;;7.47;4.40;;;;;;;14.09;69.01;101457.72;147658;1147;104459;-83
2021/03/30 09:31:20;;;;;;;7.35;5.10;;;;;;;14.06;69.14;101454.47;147517;1147;104566;-85
2021/03/30 09:34:25;;;;;;;8.10;5.45;;;;;;;14.16;69.20;101455.27;147817;1147;104530;-83
2021/03/30 09:37:40;;;;;;;8.55;5.58;;;;;;;14.38;68.60;101464.81;147825;1147;104547;-83
2021/03/30 09:40:44;;;;;;;12.25;9.48;;;;;;;14.46;68.86;101459.53;147595;1148;104457;-81
2021/03/30 09:43:48;;;;;;;14.83;10.82;;;;;;;14.41;69.08;101461.81;147752;1147;104544;-78
2021/03/30 09:46:54;;;;;;;15.83;11.75;;;;;;;14.45;68.89;101465.91;147767;1146;104538;-81
2021/03/30 09:50:00;;;;;;;15.57;10.50;;;;;;;14.40;68.41;101467.35;147945;1148;104456;-78
2021/03/30 09:53:07;;;;;;;14.30;10.43;;;;;;;14.40;68.85;101460.13;147839;1147;104581;-79
2021/03/30 09:56:20;;;;;;;16.97;11.80;;;;;;;14.49;68.50;101467.30;147820;1148;104543;-79
2021/03/30 09:59:24;;;;;;;15.08;11.20;;;;;;;14.67;68.18;101464.69;147853;1147;104525;-80
2021/03/30 10:02:31;;;;;;;14.40;10.98;;;;;;;14.66;68.34;101457.61;147498;1147;105106;-78
2021/03/30 10:05:35;;;;;;;14.23;11.10;;;;;;;14.65;68.21;101465.84;147696;1147;104492;-78
2021/03/30 10:08:38;;;;;;;15.10;10.90;;;;;;;14.56;68.26;101469.39;147860;1147;104450;-80
2021/03/30 10:11:43;;;;;;;15.38;11.35;;;;;;;14.42;68.78;101471.56;147731;1147;104487;-79
2021/03/30 10:14:47;;;;;;;15.10;11.10;;;;;;;14.33;68.37;101467.92;147985;1147;104458;-79
2021/03/30 10:17:52;;;;;;;12.47;10.13;;;;;;;14.13;68.60;101459.11;147656;1147;104468;-78
2021/03/30 10:20:58;;;;;;;13.07;10.17;;;;;;;14.13;68.48;101463.64;147588;1147;104540;-78
2021/03/30 10:24:11;;;;;;;15.38;10.63;;;;;;;14.10;68.87;101456.70;147374;1147;104482;-80
2021/03/30 10:27:18;;;;;;;16.02;11.12;;;;;;;14.09;68.64;101465.77;147489;1146;104618;-81
2021/03/30 10:30:35;;;;;;;15.38;10.70;;;;;;;14.04;68.48;101461.83;147735;1147;104522;-82
2021/03/30 10:33:40;;;;;;;13.58;10.35;;;;;;;14.07;69.13;101464.23;147737;1147;104575;-83
2021/03/30 10:36:45;;;;;;;15.43;10.32;;;;;;;14.18;68.59;101464.02;147698;1147;104544;-81
2021/03/30 10:39:48;;;;;;;12.05;8.85;;;;;;;14.36;68.59;101464.11;147874;1147;104470;-80
2021/03/30 10:42:51;;;;;;;10.95;6.95;;;;;;;14.47;68.96;101469.30;147935;1147;104508;-81
2021/03/30 10:45:54;;;;;;;8.50;6.67;;;;;;;14.50;68.30;101465.45;147616;1147;104576;-80
2021/03/30 10:49:02;;;;;;;7.87;5.70;;;;;;;14.49;68.56;101461.06;147618;1147;104604;-80
2021/03/30 10:52:06;;;;;;;61.40;30.97;;;;;;;14.52;68.34;101475.05;147810;1147;104500;-81
2021/03/30 10:55:13;;;;;;;11.28;7.47;;;;;;;14.42;67.66;101468.05;147892;1147;104462;-80
2021/03/30 10:58:18;;;;;;;7.37;5.03;;;;;;;14.22;67.47;101465.45;147887;1146;104472;-81
2021/03/30 11:01:23;;;;;;;8.45;5.80;;;;;;;14.11;68.55;101466.47;147915;1147;104538;-82
2021/03/30 11:04:27;;;;;;;8.28;5.05;;;;;;;14.09;68.21;101468.45;147836;1147;104570;-80
2021/03/30 11:07:30;;;;;;;6.10;4.70;;;;;;;14.13;68.16;101466.33;147722;1146;104490;-79
2021/03/30 11:10:35;;;;;;;6.00;4.40;;;;;;;14.16;68.20;101467.86;147658;1146;104504;-73
2021/03/30 11:13:39;;;;;;;6.80;4.87;;;;;;;14.23;68.14;101455.55;148078;1146;104515;-73
2021/03/30 11:16:42;;;;;;;6.27;4.60;;;;;;;14.31;68.36;101455.64;147986;1145;104544;-76
2021/03/30 11:19:45;;;;;;;6.67;4.90;;;;;;;14.39;67.88;101460.28;147808;1147;104601;-75
2021/03/30 11:22:49;;;;;;;6.92;4.42;;;;;;;14.39;67.29;101450.37;147985;1146;105029;-74
2021/03/30 11:25:52;;;;;;;5.87;4.10;;;;;;;14.35;67.66;101454.34;147989;1147;104463;-73
2021/03/30 11:28:57;;;;;;;4.92;3.67;;;;;;;14.44;68.15;101460.69;147915;1147;104546;-72
2021/03/30 11:32:15;;;;;;;4.62;3.70;;;;;;;14.48;67.11;101462.08;147614;1148;104475;-72
2021/03/30 11:35:20;;;;;;;5.58;3.72;;;;;;;14.44;67.55;101453.47;147756;1147;104647;-75
2021/03/30 11:38:24;;;;;;;4.40;3.58;;;;;;;14.34;68.11;101455.36;147873;1147;104452;-72
2021/03/30 11:41:27;;;;;;;5.87;3.77;;;;;;;14.37;67.71;101446.99;147926;1147;104501;-73
2021/03/30 11:44:30;;;;;;;5.13;3.90;;;;;;;14.32;67.27;101444.77;147896;1147;104528;-73
2021/03/30 11:47:33;;;;;;;5.43;4.00;;;;;;;14.26;67.96;101439.12;147906;1147;104492;-75
2021/03/30 11:50:38;;;;;;;5.70;4.37;;;;;;;14.20;68.20;101439.72;147765;1147;105027;-72
2021/03/30 11:53:44;;;;;;;6.28;3.83;;;;;;;14.15;67.70;101426.76;148053;1148;104531;-72
2021/03/30 11:56:47;;;;;;;4.70;3.55;;;;;;;14.16;68.37;101424.91;148084;1147;104453;-73
2021/03/30 11:59:51;;;;;;;6.12;3.20;;;;;;;14.19;68.52;101427.31;147807;1147;104581;-75
2021/03/30 12:02:54;;;;;;;4.70;3.23;;;;;;;14.13;67.92;101426.06;147440;1147;104466;-75
2021/03/30 12:05:57;;;;;;;5.03;3.35;;;;;;;14.22;68.02;101422.50;147608;1147;104546;-76
2021/03/30 12:09:01;;;;;;;5.30;3.27;;;;;;;14.35;68.29;101427.50;147383;1148;104562;-76
2021/03/30 12:12:05;;;;;;;5.25;3.45;;;;;;;14.50;67.59;101420.63;147598;1147;104576;-75
2021/03/30 12:15:11;;;;;;;6.40;3.55;;;;;;;14.63;67.22;101425.69;147731;1147;104589;-75
2021/03/30 12:18:14;;;;;;;6.20;4.00;;;;;;;14.63;67.77;101420.31;147982;1146;104449;-73
2021/03/30 12:21:17;;;;;;;6.97;4.20;;;;;;;14.65;67.41;101426.38;147917;1147;104620;-75
2021/03/30 12:24:21;;;;;;;5.08;3.70;;;;;;;14.66;67.54;101419.16;147634;1148;104556;-75
2021/03/30 12:27:24;;;;;;;5.77;4.37;;;;;;;14.65;67.43;101420.17;147476;1147;104479;-76
2021/03/30 12:30:27;;;;;;;7.42;4.55;;;;;;;14.57;67.26;101415.55;147730;1146;104454;-76
2021/03/30 12:33:30;;;;;;;6.83;3.87;;;;;;;14.49;67.47;101418.09;147845;1147;104455;-76
2021/03/30 12:36:33;;;;;;;5.45;3.40;;;;;;;14.42;67.31;101422.39;147713;1147;104601;-77
2021/03/30 12:39:37;;;;;;;5.03;3.45;;;;;;;14.43;67.65;101422.22;147912;1147;104441;-76
2021/03/30 12:42:40;;;;;;;5.92;3.47;;;;;;;14.39;67.10;101412.78;147784;1147;104448;-76
2021/03/30 12:45:43;;;;;;;8.60;5.28;;;;;;;14.36;67.48;101409.55;147669;1147;104950;-75
2021/03/30 12:48:46;;;;;;;8.17;5.73;;;;;;;14.28;67.66;101412.97;147794;1147;104426;-78
2021/03/30 12:51:50;;;;;;;10.43;7.70;;;;;;;14.25;68.05;101410.60;147865;1147;104566;-76
2021/03/30 12:55:03;;;;;;;14.63;9.80;;;;;;;14.28;68.05;101416.53;147783;1146;104600;-74
2021/03/30 12:58:06;;;;;;;10.30;7.05;;;;;;;14.28;67.75;101415.66;147947;1148;104519;-74
2021/03/30 13:01:09;;;;;;;8.93;6.50;;;;;;;14.33;68.00;101413.38;147901;1147;104540;-74
2021/03/30 13:04:12;;;;;;;6.93;5.60;;;;;;;14.43;67.27;101403.42;147648;1147;104484;-73
2021/03/30 13:07:18;;;;;;;8.48;6.12;;;;;;;14.44;67.65;101406.98;147897;1148;104588;-74
2021/03/30 13:10:21;;;;;;;11.87;8.37;;;;;;;14.30;67.81;101408.33;147814;1147;104499;-75
2021/03/30 13:13:24;;;;;;;9.33;6.67;;;;;;;14.23;67.81;101397.33;147756;1148;104535;-76
2021/03/30 13:16:27;;;;;;;9.88;6.00;;;;;;;14.25;68.17;101391.81;147873;1147;104466;-75
2021/03/30 13:19:30;;;;;;;7.83;6.47;;;;;;;14.31;67.65;101393.89;147969;1147;104556;-75
2021/03/30 13:22:34;;;;;;;6.25;5.05;;;;;;;14.21;67.75;101398.48;147924;1147;104524;-74
2021/03/30 13:25:37;;;;;;;10.50;7.65;;;;;;;14.14;67.79;101398.21;147864;1146;104495;-75
2021/03/30 13:28:40;;;;;;;17.25;13.32;;;;;;;14.13;68.02;101397.38;147950;1147;104470;-75
2021/03/30 13:31:43;;;;;;;7.65;6.55;;;;;;;14.14;68.08;101393.71;147998;1147;104470;-75
2021/03/30 13:34:49;;;;;;;17.45;14.87;;;;;;;14.19;68.03;101390.56;147904;1147;104444;-76
2021/03/30 13:37:52;;;;;;;10.55;8.80;;;;;;;14.13;68.02;101389.32;147831;1146;104607;-73
2021/03/30 13:40:57;;;;;;;8.58;6.40;;;;;;;14.09;68.24;101392.46;147835;1147;104471;-75
2021/03/30 13:44:00;;;;;;;8.03;6.55;;;;;;;14.06;67.96;101388.22;147644;1146;104473;-75
2021/03/30 13:47:06;;;;;;;7.55;5.85;;;;;;;14.04;68.38;101381.31;147707;1147;104466;-75
2021/03/30 13:50:12;;;;;;;7.08;4.70;;;;;;;14.00;68.09;101385.30;147966;1147;104473;-74
2021/03/30 13:53:15;;;;;;;8.13;6.40;;;;;;;14.05;68.57;101378.48;147989;1147;104921;-75
2021/03/30 13:56:18;;;;;;;11.28;8.60;;;;;;;14.07;67.89;101381.87;147911;1147;104579;-75